Time;durP1;ratioP1;P1;durP2;ratioP2;P2;SDS_P1;SDS_P2;PMS_P1;PMS_P2;Temp;Humidity;BMP_temperature;BMP_pressure;BME280_temperature;BME280_humidity;BME280_pressure;Samples;Min_cycle;Max_cycle;Signal;HPM_P1;HPM_P2
2024/01/09 00:00:04;;;;;;;;;;;19.30;66.60;;;;;;5063237;28;43182;-80
2024/01/09 00:02:30;;;;;;;;;;;19.20;66.50;;;;;;5079605;28;43536;-82
2024/01/09 00:04:55;;;;;;;;;;;19.40;66.70;;;;;;5082621;28;42962;-80
2024/01/09 00:07:21;;;;;;;;;;;19.30;65.80;;;;;;5085294;28;43721;-81
2024/01/09 00:09:47;;;;;;;;;;;19.40;65.80;;;;;;5062934;28;43146;-82
2024/01/09 00:12:13;;;;;;;;;;;19.30;65.80;;;;;;5052964;28;43656;-81
2024/01/09 00:14:38;;;;;;;;;;;19.30;65.80;;;;;;5080096;28;43030;-81
2024/01/09 00:17:04;;;;;;;;;;;19.30;66.70;;;;;;5084102;28;42982;-80
2024/01/09 00:19:29;;;;;;;;;;;19.30;66.60;;;;;;5084663;28;43006;-80
2024/01/09 00:21:55;;;;;;;;;;;19.30;66.00;;;;;;5084345;28;43325;-81
2024/01/09 00:24:21;;;;;;;;;;;19.40;66.10;;;;;;5084861;28;42979;-82
2024/01/09 00:26:46;;;;;;;;;;;19.30;66.00;;;;;;5084865;28;42879;-82
2024/01/09 00:29:12;;;;;;;;;;;19.30;66.90;;;;;;5084642;28;43111;-80
2024/01/09 00:31:38;;;;;;;;;;;19.30;67.00;;;;;;5084134;28;43866;-82
2024/01/09 00:34:03;;;;;;;;;;;19.30;66.80;;;;;;5066135;28;43333;-81
2024/01/09 00:36:29;;;;;;;;;;;19.30;66.80;;;;;;5084233;28;43488;-83
2024/01/09 00:38:54;;;;;;;;;;;19.30;66.80;;;;;;5083373;28;43340;-80
2024/01/09 00:41:20;;;;;;;;;;;19.30;66.80;;;;;;5084290;28;43519;-80
2024/01/09 00:43:46;;;;;;;;;;;19.30;66.20;;;;;;5066060;28;43050;-80
2024/01/09 00:46:11;;;;;;;;;;;19.20;66.10;;;;;;5084184;28;43457;-83
2024/01/09 00:48:37;;;;;;;;;;;19.30;66.20;;;;;;5084487;28;43193;-83
2024/01/09 00:51:02;;;;;;;;;;;19.40;66.30;;;;;;5084539;28;42950;-84
2024/01/09 00:53:28;;;;;;;;;;;19.30;67.00;;;;;;5085290;28;43257;-83
2024/01/09 00:55:54;;;;;;;;;;;19.30;66.30;;;;;;5085474;28;43080;-80
2024/01/09 00:58:20;;;;;;;;;;;19.30;66.90;;;;;;5090828;28;42915;-81
2024/01/09 01:00:46;;;;;;;;;;;19.30;67.10;;;;;;5085116;28;42826;-79
2024/01/09 01:03:11;;;;;;;;;;;19.30;67.00;;;;;;5084714;28;43089;-81
2024/01/09 01:05:37;;;;;;;;;;;19.30;67.10;;;;;;5084374;28;43443;-78
2024/01/09 01:08:03;;;;;;;;;;;19.30;67.10;;;;;;5062458;28;43077;-80
2024/01/09 01:10:28;;;;;;;;;;;19.40;66.60;;;;;;5080265;28;43048;-79
2024/01/09 01:12:54;;;;;;;;;;;19.30;66.50;;;;;;5083982;28;42969;-78
2024/01/09 01:15:19;;;;;;;;;;;19.30;67.30;;;;;;5083605;28;43266;-79
2024/01/09 01:17:45;;;;;;;;;;;19.30;67.50;;;;;;5084005;28;43034;-79
2024/01/09 01:20:10;;;;;;;;;;;19.30;67.40;;;;;;5083528;28;44540;-79
2024/01/09 01:22:36;;;;;;;;;;;19.30;67.20;;;;;;5083163;28;43007;-79
2024/01/09 01:25:02;;;;;;;;;;;19.30;67.40;;;;;;5083816;28;42910;-79
2024/01/09 01:27:27;;;;;;;;;;;19.30;67.40;;;;;;5061560;28;42970;-81
2024/01/09 01:29:53;;;;;;;;;;;19.30;66.80;;;;;;5083925;28;42930;-79
2024/01/09 01:32:18;;;;;;;;;;;19.30;67.50;;;;;;5083917;28;43018;-80
2024/01/09 01:34:45;;;;;;;;;;;19.30;66.90;;;;;;5083852;28;43530;-81
2024/01/09 01:37:10;;;;;;;;;;;19.30;67.00;;;;;;5084269;28;42995;-82
2024/01/09 01:39:36;;;;;;;;;;;19.30;67.10;;;;;;5082977;28;42928;-79
2024/01/09 01:42:02;;;;;;;;;;;19.30;67.80;;;;;;5074685;28;42946;-79
2024/01/09 01:44:27;;;;;;;;;;;19.40;67.20;;;;;;5078573;28;43039;-79
2024/01/09 01:46:53;;;;;;;;;;;19.30;67.80;;;;;;5084002;28;42951;-78
2024/01/09 01:49:19;;;;;;;;;;;19.30;68.00;;;;;;5083962;28;42945;-80
2024/01/09 01:51:45;;;;;;;;;;;19.30;67.20;;;;;;5065899;28;43090;-80
2024/01/09 01:54:12;;;;;;;;;;;19.30;67.80;;;;;;5082842;28;43277;-79
2024/01/09 01:56:38;;;;;;;;;;;19.30;68.00;;;;;;5083880;28;42929;-80
2024/01/09 01:59:04;;;;;;;;;;;19.30;67.90;;;;;;5082410;28;42977;-79
2024/01/09 02:01:29;;;;;;;;;;;19.30;67.90;;;;;;5065081;28;42983;-79
2024/01/09 02:03:56;;;;;;;;;;;19.30;68.00;;;;;;5084161;28;42999;-79
2024/01/09 02:06:22;;;;;;;;;;;19.30;68.00;;;;;;5083969;28;42972;-80
2024/01/09 02:08:48;;;;;;;;;;;19.30;67.90;;;;;;5083654;28;42874;-78
2024/01/09 02:11:14;;;;;;;;;;;19.30;68.00;;;;;;5083066;28;43005;-78
2024/01/09 02:13:40;;;;;;;;;;;19.30;67.90;;;;;;5078269;28;42990;-79
2024/01/09 02:16:05;;;;;;;;;;;19.30;67.40;;;;;;5081484;28;43002;-80
2024/01/09 02:18:31;;;;;;;;;;;19.30;68.00;;;;;;5074998;28;42934;-79
2024/01/09 02:20:56;;;;;;;;;;;19.30;67.50;;;;;;5084105;28;42994;-82
2024/01/09 02:23:22;;;;;;;;;;;19.30;68.00;;;;;;5073794;28;43902;-79
2024/01/09 02:25:48;;;;;;;;;;;19.30;68.10;;;;;;5083889;28;42970;-79
2024/01/09 02:28:18;;;;;;;;;;;19.30;68.00;;;;;;5083464;28;43871;-79
2024/01/09 02:30:45;;;;;;;;;;;19.30;67.50;;;;;;5072908;28;42938;-79
2024/01/09 02:33:10;;;;;;;;;;;19.30;67.50;;;;;;5082269;28;43355;-79
2024/01/09 02:35:36;;;;;;;;;;;19.20;67.50;;;;;;5084286;27;42948;-79
2024/01/09 02:38:02;;;;;;;;;;;19.30;67.50;;;;;;5085727;28;43057;-78
2024/01/09 02:40:27;;;;;;;;;;;19.30;68.30;;;;;;5087097;28;42856;-79
2024/01/09 02:42:54;;;;;;;;;;;19.30;68.30;;;;;;5086613;28;43899;-79
2024/01/09 02:45:19;;;;;;;;;;;19.30;67.40;;;;;;5079438;28;43044;-85
2024/01/09 02:47:45;;;;;;;;;;;19.30;67.40;;;;;;5072745;28;43667;-80
2024/01/09 02:50:10;;;;;;;;;;;19.30;68.20;;;;;;5070427;28;43090;-78
2024/01/09 02:52:36;;;;;;;;;;;19.30;68.10;;;;;;5078618;27;42953;-79
2024/01/09 02:55:01;;;;;;;;;;;19.30;67.50;;;;;;5079471;28;43115;-80
2024/01/09 02:57:27;;;;;;;;;;;19.20;68.10;;;;;;5083875;28;42945;-79
2024/01/09 02:59:52;;;;;;;;;;;19.30;67.40;;;;;;5086582;28;43160;-79
2024/01/09 03:02:18;;;;;;;;;;;19.30;68.10;;;;;;5063252;28;45006;-79
2024/01/09 03:04:43;;;;;;;;;;;19.30;68.20;;;;;;5080390;28;42944;-79
2024/01/09 03:07:09;;;;;;;;;;;19.30;68.30;;;;;;5086723;28;43305;-78
2024/01/09 03:09:35;;;;;;;;;;;19.30;68.30;;;;;;5086599;28;42890;-78
2024/01/09 03:12:01;;;;;;;;;;;19.30;68.10;;;;;;5084055;28;43133;-79
2024/01/09 03:14:26;;;;;;;;;;;19.30;67.60;;;;;;5084376;28;42967;-80
2024/01/09 03:16:52;;;;;;;;;;;19.40;68.40;;;;;;5085345;28;43002;-83
2024/01/09 03:19:17;;;;;;;;;;;19.20;67.50;;;;;;5086589;28;43020;-80
2024/01/09 03:21:43;;;;;;;;;;;19.20;67.50;;;;;;5086172;28;43128;-80
2024/01/09 03:24:09;;;;;;;;;;;19.20;68.20;;;;;;5089995;28;43065;-82
2024/01/09 03:26:34;;;;;;;;;;;19.30;68.30;;;;;;5089316;28;42923;-80
2024/01/09 03:29:02;;;;;;;;;;;19.30;68.30;;;;;;5085635;28;42989;-84
2024/01/09 03:31:28;;;;;;;;;;;19.20;67.60;;;;;;5086349;28;44035;-83
2024/01/09 03:33:53;;;;;;;;;;;19.30;67.70;;;;;;5085405;28;42879;-80
2024/01/09 03:36:19;;;;;;;;;;;19.20;67.60;;;;;;5085667;28;43672;-81
2024/01/09 03:38:45;;;;;;;;;;;19.30;67.80;;;;;;5085727;28;42782;-80
2024/01/09 03:41:11;;;;;;;;;;;19.30;67.70;;;;;;5086106;28;42765;-83
2024/01/09 03:43:36;;;;;;;;;;;19.30;67.80;;;;;;5085521;28;42975;-80
2024/01/09 03:46:02;;;;;;;;;;;19.30;67.80;;;;;;5084575;27;43800;-82
2024/01/09 03:48:28;;;;;;;;;;;19.50;68.60;;;;;;5085009;28;43163;-81
2024/01/09 03:50:54;;;;;;;;;;;19.30;67.80;;;;;;5084139;28;43011;-81
2024/01/09 03:53:19;;;;;;;;;;;19.30;68.50;;;;;;5085812;28;42954;-84
2024/01/09 03:55:45;;;;;;;;;;;19.30;68.70;;;;;;5084881;28;43641;-84
2024/01/09 03:58:11;;;;;;;;;;;19.30;68.50;;;;;;5085465;28;42979;-83
2024/01/09 04:00:38;;;;;;;;;;;19.30;67.90;;;;;;5084827;28;44147;-81
2024/01/09 04:03:04;;;;;;;;;;;19.30;68.60;;;;;;5084070;28;43283;-81
2024/01/09 04:05:29;;;;;;;;;;;19.20;68.50;;;;;;5085444;28;43968;-81
2024/01/09 04:07:55;;;;;;;;;;;19.30;68.60;;;;;;5085720;28;43013;-80
2024/01/09 04:10:20;;;;;;;;;;;19.30;69.10;;;;;;5084465;28;43605;-81
2024/01/09 04:12:46;;;;;;;;;;;19.30;68.00;;;;;;5084915;28;42923;-80
2024/01/09 04:15:12;;;;;;;;;;;19.20;67.90;;;;;;5084948;28;42717;-81
2024/01/09 04:17:38;;;;;;;;;;;19.30;68.10;;;;;;5065988;28;42975;-80
2024/01/09 04:20:04;;;;;;;;;;;19.20;68.00;;;;;;5082954;28;43503;-80
2024/01/09 04:22:30;;;;;;;;;;;19.20;68.60;;;;;;5066621;28;43332;-79
2024/01/09 04:24:55;;;;;;;;;;;19.20;68.00;;;;;;5085446;28;43967;-80
2024/01/09 04:27:21;;;;;;;;;;;19.10;68.60;;;;;;5084943;28;42943;-81
2024/01/09 04:29:47;;;;;;;;;;;19.30;68.10;;;;;;5085425;28;43736;-82
2024/01/09 04:32:12;;;;;;;;;;;19.30;68.10;;;;;;5084643;28;43106;-82
2024/01/09 04:34:38;;;;;;;;;;;19.20;68.10;;;;;;5084987;28;43509;-82
2024/01/09 04:37:03;;;;;;;;;;;19.30;68.10;;;;;;5085122;28;42895;-81
2024/01/09 04:39:29;;;;;;;;;;;19.20;68.70;;;;;;5084324;28;43011;-81
2024/01/09 04:41:55;;;;;;;;;;;19.30;68.80;;;;;;5084007;28;43581;-82
2024/01/09 04:44:21;;;;;;;;;;;19.30;68.70;;;;;;5083671;28;43663;-82
2024/01/09 04:46:46;;;;;;;;;;;19.30;68.80;;;;;;5084095;28;43165;-83
2024/01/09 04:49:12;;;;;;;;;;;19.30;68.10;;;;;;5084786;28;43781;-82
2024/01/09 04:51:37;;;;;;;;;;;19.20;68.70;;;;;;5084459;28;42934;-82
2024/01/09 04:54:03;;;;;;;;;;;19.20;68.90;;;;;;5083965;28;43720;-83
2024/01/09 04:56:28;;;;;;;;;;;19.30;68.90;;;;;;5084556;28;42907;-82
2024/01/09 04:58:54;;;;;;;;;;;19.30;68.90;;;;;;5084129;28;42914;-82
2024/01/09 05:01:21;;;;;;;;;;;19.20;68.90;;;;;;5083883;28;42898;-82
2024/01/09 05:03:48;;;;;;;;;;;19.20;68.70;;;;;;5081905;28;44233;-81
2024/01/09 05:06:17;;;;;;;;;;;19.20;68.10;;;;;;5084103;28;43018;-79
2024/01/09 05:08:43;;;;;;;;;;;19.30;68.60;;;;;;5084561;28;42949;-83
2024/01/09 05:11:09;;;;;;;;;;;19.20;68.70;;;;;;5084189;28;43234;-83
2024/01/09 05:13:34;;;;;;;;;;;19.20;69.40;;;;;;5084360;28;43025;-81
2024/01/09 05:16:00;;;;;;;;;;;19.20;68.10;;;;;;5084098;28;43077;-79
2024/01/09 05:18:25;;;;;;;;;;;19.20;68.80;;;;;;5076468;28;43697;-80
2024/01/09 05:20:51;;;;;;;;;;;19.20;69.00;;;;;;5068996;28;43199;-82
2024/01/09 05:23:16;;;;;;;;;;;19.20;68.10;;;;;;5081140;28;43369;-81
2024/01/09 05:25:42;;;;;;;;;;;19.20;68.80;;;;;;5081937;28;43169;-81
2024/01/09 05:28:07;;;;;;;;;;;19.20;68.80;;;;;;5075026;28;43514;-79
2024/01/09 05:30:33;;;;;;;;;;;19.20;68.80;;;;;;5078624;28;42977;-81
2024/01/09 05:32:58;;;;;;;;;;;19.20;68.80;;;;;;5082945;28;43004;-81
2024/01/09 05:35:24;;;;;;;;;;;19.20;68.70;;;;;;5081589;28;42963;-82
2024/01/09 05:37:49;;;;;;;;;;;19.20;68.90;;;;;;5075488;28;43479;-84
2024/01/09 05:40:16;;;;;;;;;;;19.20;68.90;;;;;;5070016;28;42929;-82
2024/01/09 05:42:43;;;;;;;;;;;19.10;68.80;;;;;;5071496;28;43084;-83
2024/01/09 05:45:09;;;;;;;;;;;19.20;68.90;;;;;;5075173;28;43090;-81
2024/01/09 05:47:34;;;;;;;;;;;19.30;68.20;;;;;;5083465;28;42955;-79
2024/01/09 05:50:00;;;;;;;;;;;19.20;68.80;;;;;;5069130;28;43236;-81
2024/01/09 05:52:25;;;;;;;;;;;19.30;68.80;;;;;;5080652;27;43238;-79
2024/01/09 05:54:51;;;;;;;;;;;19.30;67.70;;;;;;5062205;28;43026;-80
2024/01/09 05:57:16;;;;;;;;;;;19.20;67.20;;;;;;5081773;28;43149;-80
2024/01/09 05:59:42;;;;;;;;;;;19.20;67.20;;;;;;5081728;28;43263;-80
2024/01/09 06:02:07;;;;;;;;;;;19.20;67.80;;;;;;5076946;28;43593;-80
2024/01/09 06:04:33;;;;;;;;;;;19.20;67.60;;;;;;5064276;28;42886;-80
2024/01/09 06:06:58;;;;;;;;;;;19.20;66.50;;;;;;5083344;28;43361;-80
2024/01/09 06:09:24;;;;;;;;;;;19.20;66.40;;;;;;5081133;27;43590;-80
2024/01/09 06:11:49;;;;;;;;;;;19.20;67.00;;;;;;5086937;28;43021;-80
2024/01/09 06:14:15;;;;;;;;;;;19.20;66.90;;;;;;5087197;28;42950;-79
2024/01/09 06:16:41;;;;;;;;;;;19.10;66.10;;;;;;5086443;28;42809;-79
2024/01/09 06:19:06;;;;;;;;;;;19.30;66.80;;;;;;5086604;28;43225;-79
2024/01/09 06:21:32;;;;;;;;;;;19.20;65.90;;;;;;5075823;28;43592;-79
2024/01/09 06:23:58;;;;;;;;;;;19.20;65.90;;;;;;5070447;28;42935;-80
2024/01/09 06:26:24;;;;;;;;;;;19.10;65.80;;;;;;5063258;28;44418;-79
2024/01/09 06:28:49;;;;;;;;;;;19.10;65.80;;;;;;5082973;28;43191;-79
2024/01/09 06:31:15;;;;;;;;;;;19.10;65.70;;;;;;5068052;28;43403;-79
2024/01/09 06:33:40;;;;;;;;;;;19.10;65.70;;;;;;5086251;28;42982;-79
2024/01/09 06:36:06;;;;;;;;;;;19.10;66.30;;;;;;5085277;28;42885;-80
2024/01/09 06:38:32;;;;;;;;;;;19.10;66.30;;;;;;5084408;28;42988;-79
2024/01/09 06:40:58;;;;;;;;;;;19.00;65.60;;;;;;5085708;28;44010;-78
2024/01/09 06:43:23;;;;;;;;;;;19.00;65.60;;;;;;5086373;28;42866;-80
2024/01/09 06:45:49;;;;;;;;;;;19.00;66.30;;;;;;5086013;28;43936;-80
2024/01/09 06:48:14;;;;;;;;;;;19.00;55.90;;;;;;5083754;28;43208;-79
2024/01/09 06:50:40;;;;;;;;;;;18.90;50.70;;;;;;5085890;28;42877;-79
2024/01/09 06:53:06;;;;;;;;;;;18.80;52.20;;;;;;5085058;28;42817;-79
2024/01/09 06:55:31;;;;;;;;;;;18.70;54.50;;;;;;5083522;28;43624;-80
2024/01/09 06:57:57;;;;;;;;;;;18.70;57.50;;;;;;5084457;28;42953;-79
2024/01/09 07:00:22;;;;;;;;;;;18.60;57.70;;;;;;5074607;28;43156;-79
2024/01/09 07:02:48;;;;;;;;;;;18.70;58.80;;;;;;5079037;28;42955;-80
2024/01/09 07:05:13;;;;;;;;;;;18.70;59.50;;;;;;5070880;28;43786;-80
2024/01/09 07:07:39;;;;;;;;;;;18.70;59.50;;;;;;5075350;28;43016;-80
2024/01/09 07:10:05;;;;;;;;;;;18.80;60.10;;;;;;5078643;28;43220;-79
2024/01/09 07:12:30;;;;;;;;;;;18.80;60.30;;;;;;5085735;28;43018;-80
2024/01/09 07:14:56;;;;;;;;;;;18.80;59.80;;;;;;5086430;28;43913;-75
2024/01/09 07:17:22;;;;;;;;;;;18.80;60.60;;;;;;5067833;28;43029;-80
2024/01/09 07:19:48;;;;;;;;;;;18.90;60.90;;;;;;5065807;27;43794;-77
2024/01/09 07:22:13;;;;;;;;;;;18.90;61.00;;;;;;5085293;28;42941;-79
2024/01/09 07:24:39;;;;;;;;;;;18.90;61.20;;;;;;5085962;28;44096;-79
2024/01/09 07:27:04;;;;;;;;;;;19.00;60.80;;;;;;5086565;28;43281;-80
2024/01/09 07:29:30;;;;;;;;;;;19.00;61.60;;;;;;5066964;28;43055;-76
2024/01/09 07:31:55;;;;;;;;;;;19.00;61.60;;;;;;5085327;28;43022;-79
2024/01/09 07:34:21;;;;;;;;;;;19.00;61.80;;;;;;5085996;28;42877;-78
2024/01/09 07:36:47;;;;;;;;;;;19.00;61.20;;;;;;5086510;28;42935;-79
2024/01/09 07:39:12;;;;;;;;;;;19.10;62.00;;;;;;5081178;28;43487;-78
2024/01/09 07:41:38;;;;;;;;;;;19.00;62.10;;;;;;5068605;28;42737;-79
2024/01/09 07:44:03;;;;;;;;;;;19.10;62.30;;;;;;5086188;28;43811;-79
2024/01/09 07:46:30;;;;;;;;;;;19.00;61.80;;;;;;5086169;28;42966;-79
2024/01/09 07:48:56;;;;;;;;;;;19.20;62.10;;;;;;5082875;28;42988;-79
2024/01/09 07:51:21;;;;;;;;;;;19.00;53.20;;;;;;5073211;28;43047;-81
2024/01/09 07:53:47;;;;;;;;;;;18.90;57.30;;;;;;5084461;28;43453;-80
2024/01/09 07:56:14;;;;;;;;;;;18.90;57.10;;;;;;5083334;28;43334;-80
2024/01/09 07:58:39;;;;;;;;;;;19.00;59.00;;;;;;5080729;28;43828;-81
2024/01/09 08:01:05;;;;;;;;;;;18.90;59.80;;;;;;5078247;28;42862;-80
2024/01/09 08:03:30;;;;;;;;;;;19.00;60.20;;;;;;5079275;28;43060;-81
2024/01/09 08:05:56;;;;;;;;;;;19.00;60.90;;;;;;5085161;28;43052;-82
2024/01/09 08:08:21;;;;;;;;;;;19.00;61.10;;;;;;5084666;28;43033;-81
2024/01/09 08:10:47;;;;;;;;;;;19.00;57.80;;;;;;5084317;28;43038;-80
2024/01/09 08:13:12;;;;;;;;;;;19.00;51.10;;;;;;5052028;28;44368;-80
2024/01/09 08:15:38;;;;;;;;;;;18.90;52.40;;;;;;5055293;28;42921;-79
2024/01/09 08:18:03;;;;;;;;;;;18.80;53.10;;;;;;5053081;28;42987;-79
2024/01/09 08:20:29;;;;;;;;;;;18.80;54.40;;;;;;5046999;28;43187;-79
2024/01/09 08:22:54;;;;;;;;;;;18.80;54.90;;;;;;5044779;28;43003;-79
2024/01/09 08:25:20;;;;;;;;;;;18.80;55.50;;;;;;5044825;28;43285;-79
2024/01/09 08:27:46;;;;;;;;;;;18.80;55.80;;;;;;5055312;28;43513;-79
2024/01/09 08:30:12;;;;;;;;;;;18.90;55.70;;;;;;5054139;28;43186;-78
2024/01/09 08:32:39;;;;;;;;;;;18.90;55.80;;;;;;5054585;28;43541;-79
2024/01/09 08:35:04;;;;;;;;;;;18.90;56.60;;;;;;5055514;28;42745;-79
2024/01/09 08:37:30;;;;;;;;;;;18.90;56.70;;;;;;5054003;28;42916;-80
2024/01/09 08:39:55;;;;;;;;;;;18.90;57.00;;;;;;5052716;28;42820;-79
2024/01/09 08:42:21;;;;;;;;;;;19.00;56.60;;;;;;5044876;28;42932;-80
2024/01/09 08:44:46;;;;;;;;;;;19.00;57.20;;;;;;5044333;28;42886;-80
2024/01/09 08:47:12;;;;;;;;;;;18.90;56.90;;;;;;5044576;28;43714;-78
2024/01/09 08:49:38;;;;;;;;;;;19.10;57.60;;;;;;5044547;28;42786;-80
2024/01/09 08:52:04;;;;;;;;;;;19.00;57.70;;;;;;5045014;28;43920;-79
2024/01/09 08:54:30;;;;;;;;;;;19.00;57.70;;;;;;5045423;28;43195;-80
2024/01/09 08:56:56;;;;;;;;;;;19.00;57.30;;;;;;5044534;28;43015;-80
2024/01/09 08:59:21;;;;;;;;;;;19.10;57.90;;;;;;5043381;28;45218;-80
2024/01/09 09:01:47;;;;;;;;;;;19.00;57.40;;;;;;5038187;28;43136;-81
2024/01/09 09:04:12;;;;;;;;;;;19.10;58.10;;;;;;5024484;28;42994;-80
2024/01/09 09:06:38;;;;;;;;;;;19.10;57.70;;;;;;5033127;28;43692;-81
2024/01/09 09:09:04;;;;;;;;;;;19.10;58.30;;;;;;5039695;28;44855;-81
2024/01/09 09:11:31;;;;;;;;;;;19.00;58.30;;;;;;5045464;28;43695;-80
2024/01/09 09:13:57;;;;;;;;;;;19.10;58.00;;;;;;5083446;28;42921;-80
2024/01/09 09:16:23;;;;;;;;;;;19.10;58.70;;;;;;5085428;28;43929;-79
2024/01/09 09:18:49;;;;;;;;;;;19.00;58.10;;;;;;5085325;28;42743;-81
2024/01/09 09:21:16;;;;;;;;;;;19.10;58.80;;;;;;5066647;28;44520;-81
2024/01/09 09:23:42;;;;;;;;;;;19.10;58.30;;;;;;5081752;28;43118;-84
2024/01/09 09:26:07;;;;;;;;;;;19.10;59.00;;;;;;5084578;28;43634;-84
2024/01/09 09:28:33;;;;;;;;;;;19.00;58.50;;;;;;5084757;28;42976;-82
2024/01/09 09:30:58;;;;;;;;;;;19.10;59.30;;;;;;5084122;28;43078;-80
2024/01/09 09:33:28;;;;;;;;;;;19.10;59.20;;;;;;5083946;28;43307;-79
2024/01/09 09:35:54;;;;;;;;;;;19.10;59.30;;;;;;5082873;28;44597;-80
2024/01/09 09:38:22;;;;;;;;;;;19.00;59.50;;;;;;5077098;28;43303;-78
2024/01/09 09:40:47;;;;;;;;;;;19.10;59.50;;;;;;5071326;28;43625;-78
2024/01/09 09:43:21;;;;;;;;;;;19.00;59.00;;;;;;5079093;28;43080;-79
2024/01/09 09:45:50;;;;;;;;;;;19.10;59.10;;;;;;5083352;28;62293;-79
2024/01/09 09:48:16;;;;;;;;;;;19.10;59.70;;;;;;5084746;28;43927;-79
2024/01/09 09:50:42;;;;;;;;;;;19.00;59.70;;;;;;5086320;28;44433;-79
2024/01/09 09:53:08;;;;;;;;;;;19.10;59.70;;;;;;5084464;28;42954;-80
2024/01/09 09:55:34;;;;;;;;;;;19.10;54.50;;;;;;5086672;28;43205;-77
2024/01/09 09:58:00;;;;;;;;;;;19.10;58.10;;;;;;5080377;27;42949;-82
2024/01/09 10:00:26;;;;;;;;;;;19.00;55.50;;;;;;5086023;27;43471;-82
2024/01/09 10:02:53;;;;;;;;;;;18.70;40.30;;;;;;5085345;28;42969;-82
2024/01/09 10:05:19;;;;;;;;;;;18.60;40.00;;;;;;5084028;28;43055;-81
2024/01/09 10:07:45;;;;;;;;;;;18.10;37.60;;;;;;5086467;28;42954;-81
2024/01/09 10:10:11;;;;;;;;;;;18.00;38.30;;;;;;5081886;28;43188;-81
2024/01/09 10:12:38;;;;;;;;;;;17.80;38.60;;;;;;5074363;28;43076;-79
2024/01/09 10:15:04;;;;;;;;;;;17.60;37.80;;;;;;5079884;28;43679;-79
2024/01/09 10:17:30;;;;;;;;;;;17.40;37.80;;;;;;5086696;28;43240;-79
2024/01/09 10:19:55;;;;;;;;;;;17.20;39.10;;;;;;5086762;28;43454;-79
2024/01/09 10:22:21;;;;;;;;;;;17.00;38.90;;;;;;5078614;27;42973;-81
2024/01/09 10:24:46;;;;;;;;;;;16.80;38.40;;;;;;5080051;27;42905;-78
2024/01/09 10:27:12;;;;;;;;;;;16.90;38.60;;;;;;5074724;27;43061;-79
2024/01/09 10:29:38;;;;;;;;;;;16.50;38.30;;;;;;5082009;27;43115;-80
2024/01/09 10:32:04;;;;;;;;;;;16.50;37.90;;;;;;5079873;28;43210;-80
2024/01/09 10:34:30;;;;;;;;;;;16.40;38.70;;;;;;5062340;28;44623;-81
2024/01/09 10:37:05;;;;;;;;;;;16.30;38.90;;;;;;5087083;28;42990;-80
2024/01/09 10:39:31;;;;;;;;;;;16.30;41.90;;;;;;5087654;28;42911;-79
2024/01/09 10:42:03;;;;;;;;;;;16.40;43.40;;;;;;5090910;28;43096;-80
2024/01/09 10:44:28;;;;;;;;;;;16.40;45.60;;;;;;5088115;28;43686;-80
2024/01/09 10:46:54;;;;;;;;;;;16.70;47.70;;;;;;5084720;28;43234;-81
2024/01/09 10:49:20;;;;;;;;;;;16.80;48.50;;;;;;5085906;28;43649;-80
2024/01/09 10:51:48;;;;;;;;;;;16.90;44.10;;;;;;5085643;28;43084;-79
2024/01/09 10:54:15;;;;;;;;;;;17.00;47.20;;;;;;5086652;28;42961;-81
2024/01/09 10:56:42;;;;;;;;;;;17.20;48.90;;;;;;5084462;27;42985;-80
2024/01/09 10:59:10;;;;;;;;;;;17.30;49.40;;;;;;5084267;28;43352;-80
2024/01/09 11:01:35;;;;;;;;;;;17.40;49.70;;;;;;5086919;28;43434;-80
2024/01/09 11:04:01;;;;;;;;;;;17.50;49.30;;;;;;5085664;28;43034;-81
2024/01/09 11:06:27;;;;;;;;;;;17.60;50.10;;;;;;5086662;28;43037;-79
2024/01/09 11:08:58;;;;;;;;;;;17.70;50.10;;;;;;5086456;28;44019;-75
2024/01/09 11:11:24;;;;;;;;;;;17.80;50.20;;;;;;5085604;28;42957;-76
2024/01/09 11:13:51;;;;;;;;;;;17.80;50.30;;;;;;5085387;28;42950;-77
2024/01/09 11:16:17;;;;;;;;;;;17.90;50.10;;;;;;5082168;27;43378;-79
2024/01/09 11:18:43;;;;;;;;;;;18.00;50.50;;;;;;5080138;27;42930;-78
2024/01/09 11:21:11;;;;;;;;;;;18.20;51.30;;;;;;5073257;28;43014;-81
2024/01/09 11:23:43;;;;;;;;;;;17.60;51.60;;;;;;5081167;28;43622;-78
2024/01/09 11:26:09;;;;;;;;;;;17.60;50.90;;;;;;5075031;28;42999;-78
2024/01/09 11:28:36;;;;;;;;;;;18.20;51.90;;;;;;5077206;28;43566;-78
2024/01/09 11:31:08;;;;;;;;;;;18.40;52.10;;;;;;5076356;28;42973;-78
2024/01/09 11:33:41;;;;;;;;;;;18.30;51.90;;;;;;5075216;28;43363;-78
2024/01/09 11:36:07;;;;;;;;;;;18.30;52.50;;;;;;5071141;28;43320;-81
2024/01/09 11:38:32;;;;;;;;;;;18.40;52.20;;;;;;5077532;28;43714;-81
2024/01/09 11:41:05;;;;;;;;;;;18.40;52.80;;;;;;5075973;28;42963;-81
2024/01/09 11:43:50;;;;;;;;;;;18.40;52.80;;;;;;5075372;28;43076;-82
2024/01/09 11:46:16;;;;;;;;;;;18.40;53.00;;;;;;5074461;28;42871;-81
2024/01/09 11:48:43;;;;;;;;;;;18.40;46.10;;;;;;5075665;28;42868;-82
2024/01/09 11:51:09;;;;;;;;;;;18.30;43.10;;;;;;5057814;28;42931;-82
2024/01/09 11:53:35;;;;;;;;;;;18.30;42.40;;;;;;5075822;28;43485;-82
2024/01/09 11:56:01;;;;;;;;;;;18.30;46.70;;;;;;5056033;28;43142;-82
2024/01/09 11:58:27;;;;;;;;;;;18.30;49.80;;;;;;5074908;28;43019;-83
2024/01/09 12:00:52;;;;;;;;;;;18.40;51.30;;;;;;5075472;28;42982;-82
2024/01/09 12:03:18;;;;;;;;;;;18.40;51.20;;;;;;5073310;28;43296;-82
2024/01/09 12:05:43;;;;;;;;;;;18.50;52.10;;;;;;5075802;28;43013;-82
2024/01/09 12:08:09;;;;;;;;;;;18.50;52.20;;;;;;5074176;28;42925;-82
2024/01/09 12:10:35;;;;;;;;;;;18.60;52.40;;;;;;5073968;28;42934;-82
2024/01/09 12:13:01;;;;;;;;;;;18.60;52.60;;;;;;5076180;28;43702;-82
2024/01/09 12:15:27;;;;;;;;;;;18.60;52.90;;;;;;5076292;28;42958;-82
2024/01/09 12:17:56;;;;;;;;;;;18.60;53.10;;;;;;5075263;28;43012;-82
2024/01/09 12:20:22;;;;;;;;;;;18.70;53.10;;;;;;5055437;28;42989;-81
2024/01/09 12:22:47;;;;;;;;;;;18.60;52.90;;;;;;5079109;28;43992;-81
2024/01/09 12:25:13;;;;;;;;;;;18.70;53.10;;;;;;5082611;28;43412;-83
2024/01/09 12:27:39;;;;;;;;;;;18.70;53.90;;;;;;5072432;28;43137;-81
2024/01/09 12:30:06;;;;;;;;;;;18.70;47.10;;;;;;5080478;28;42964;-79
2024/01/09 12:32:31;;;;;;;;;;;18.60;41.00;;;;;;5084107;28;43343;-79
2024/01/09 12:34:57;;;;;;;;;;;18.10;37.60;;;;;;5084904;28;42929;-79
2024/01/09 12:37:24;;;;;;;;;;;18.10;38.10;;;;;;5085001;28;43058;-80
2024/01/09 12:40:01;;;;;;;;;;;17.90;37.60;;;;;;5084749;28;43002;-79
2024/01/09 12:42:27;;;;;;;;;;;17.80;39.10;;;;;;5084427;28;43013;-79
2024/01/09 12:44:52;;;;;;;;;;;17.60;40.80;;;;;;5084849;28;42974;-78
2024/01/09 12:47:18;;;;;;;;;;;17.70;43.20;;;;;;5084084;28;42992;-79
2024/01/09 12:49:44;;;;;;;;;;;17.70;44.50;;;;;;5080982;28;43050;-79
2024/01/09 12:52:10;;;;;;;;;;;17.70;45.50;;;;;;5063733;28;42945;-79
2024/01/09 12:54:36;;;;;;;;;;;17.80;46.40;;;;;;5075113;28;43037;-79
2024/01/09 12:57:01;;;;;;;;;;;17.90;47.20;;;;;;5054444;28;45040;-78
2024/01/09 12:59:27;;;;;;;;;;;18.00;47.60;;;;;;5083717;28;42970;-77
2024/01/09 13:01:55;;;;;;;;;;;18.00;47.60;;;;;;5081530;28;42933;-80
2024/01/09 13:04:21;;;;;;;;;;;18.20;48.70;;;;;;5087231;28;42876;-78
2024/01/09 13:06:47;;;;;;;;;;;18.20;48.60;;;;;;5084227;28;43941;-77
2024/01/09 13:09:13;;;;;;;;;;;18.30;49.20;;;;;;5079211;28;42996;-78
2024/01/09 13:11:39;;;;;;;;;;;18.30;49.70;;;;;;5080215;28;43721;-80
2024/01/09 13:14:05;;;;;;;;;;;18.40;49.80;;;;;;5084628;28;42926;-79
2024/01/09 13:16:31;;;;;;;;;;;18.50;50.20;;;;;;5081003;28;43506;-76
2024/01/09 13:18:56;;;;;;;;;;;18.50;50.40;;;;;;5080004;28;42962;-77
2024/01/09 13:21:22;;;;;;;;;;;18.50;50.70;;;;;;5081992;28;43576;-78
2024/01/09 13:23:47;;;;;;;;;;;18.60;50.80;;;;;;5083382;28;42871;-79
2024/01/09 13:26:13;;;;;;;;;;;18.60;50.40;;;;;;5083430;28;43122;-79
2024/01/09 13:28:39;;;;;;;;;;;18.60;51.00;;;;;;5081520;28;43268;-79
2024/01/09 13:31:04;;;;;;;;;;;18.60;51.20;;;;;;5082515;28;44596;-81
2024/01/09 13:33:30;;;;;;;;;;;18.60;50.80;;;;;;5082913;28;43125;-79
2024/01/09 13:35:55;;;;;;;;;;;18.60;51.00;;;;;;5082936;28;43492;-79
2024/01/09 13:38:21;;;;;;;;;;;18.50;50.70;;;;;;5081017;28;43053;-79
2024/01/09 13:40:48;;;;;;;;;;;18.50;51.50;;;;;;5081194;28;43041;-79
2024/01/09 13:43:13;;;;;;;;;;;18.60;51.30;;;;;;5083014;28;43000;-80
2024/01/09 13:45:39;;;;;;;;;;;18.60;52.10;;;;;;5080355;28;42935;-79
2024/01/09 13:48:05;;;;;;;;;;;18.60;52.30;;;;;;5078333;28;43031;-79
2024/01/09 13:50:30;;;;;;;;;;;18.50;51.80;;;;;;5082694;28;43158;-80
2024/01/09 13:52:56;;;;;;;;;;;18.50;52.40;;;;;;5082229;28;43153;-78
2024/01/09 13:55:21;;;;;;;;;;;18.50;52.00;;;;;;5083379;28;43370;-80
2024/01/09 13:57:48;;;;;;;;;;;18.50;52.20;;;;;;5083870;28;43042;-82
2024/01/09 14:00:14;;;;;;;;;;;18.40;47.20;;;;;;5073467;28;43056;-80
2024/01/09 14:02:39;;;;;;;;;;;18.40;49.00;;;;;;5081713;28;43391;-81
2024/01/09 14:05:06;;;;;;;;;;;18.40;49.90;;;;;;5062359;28;44800;-80
2024/01/09 14:07:31;;;;;;;;;;;18.40;51.20;;;;;;5079005;28;43112;-84